sensor_id;sensor_type;location;lat;lon;timestamp;P1;durP1;ratioP1;P2;durP2;ratioP2
52740;SDS011;38634;52.138;9.912;2023-03-16T00:00:54;7.13;;;3.30;;
52740;SDS011;38634;52.138;9.912;2023-03-16T00:03:39;7.38;;;2.90;;
52740;SDS011;38634;52.138;9.912;2023-03-16T00:06:24;10.05;;;3.67;;
52740;SDS011;38634;52.138;9.912;2023-03-16T00:09:08;6.35;;;2.88;;
52740;SDS011;38634;52.138;9.912;2023-03-16T00:11:53;8.95;;;3.30;;
52740;SDS011;38634;52.138;9.912;2023-03-16T00:14:37;3.22;;;2.70;;
52740;SDS011;38634;52.138;9.912;2023-03-16T00:17:22;5.28;;;3.38;;
52740;SDS011;38634;52.138;9.912;2023-03-16T00:20:07;3.90;;;3.17;;
52740;SDS011;38634;52.138;9.912;2023-03-16T00:22:55;4.68;;;3.25;;
52740;SDS011;38634;52.138;9.912;2023-03-16T00:25:39;4.18;;;3.20;;
52740;SDS011;38634;52.138;9.912;2023-03-16T00:28:25;3.72;;;3.13;;
52740;SDS011;38634;52.138;9.912;2023-03-16T00:31:10;5.57;;;3.97;;
52740;SDS011;38634;52.138;9.912;2023-03-16T00:33:58;3.05;;;2.75;;
52740;SDS011;38634;52.138;9.912;2023-03-16T00:36:45;4.20;;;3.75;;
52740;SDS011;38634;52.138;9.912;2023-03-16T00:39:29;2.70;;;2.50;;
52740;SDS011;38634;52.138;9.912;2023-03-16T00:42:18;3.90;;;3.50;;
52740;SDS011;38634;52.138;9.912;2023-03-16T00:45:03;4.50;;;3.00;;
52740;SDS011;38634;52.138;9.912;2023-03-16T00:47:48;6.40;;;3.22;;
52740;SDS011;38634;52.138;9.912;2023-03-16T00:50:37;7.50;;;3.25;;
52740;SDS011;38634;52.138;9.912;2023-03-16T00:53:22;7.30;;;3.20;;
52740;SDS011;38634;52.138;9.912;2023-03-16T00:56:07;7.78;;;3.28;;
52740;SDS011;38634;52.138;9.912;2023-03-16T00:58:52;4.72;;;2.95;;
52740;SDS011;38634;52.138;9.912;2023-03-16T01:01:40;4.47;;;3.03;;
52740;SDS011;38634;52.138;9.912;2023-03-16T01:04:24;5.20;;;3.00;;
52740;SDS011;38634;52.138;9.912;2023-03-16T01:07:10;6.90;;;3.03;;
52740;SDS011;38634;52.138;9.912;2023-03-16T01:09:56;4.65;;;2.92;;
52740;SDS011;38634;52.138;9.912;2023-03-16T01:12:41;5.82;;;3.00;;
52740;SDS011;38634;52.138;9.912;2023-03-16T01:15:28;7.90;;;3.38;;
52740;SDS011;38634;52.138;9.912;2023-03-16T01:18:13;8.07;;;3.70;;
52740;SDS011;38634;52.138;9.912;2023-03-16T01:20:58;6.50;;;3.25;;
52740;SDS011;38634;52.138;9.912;2023-03-16T01:23:44;7.07;;;3.13;;
52740;SDS011;38634;52.138;9.912;2023-03-16T08:47:10;11.20;;;3.50;;
52740;SDS011;38634;52.138;9.912;2023-03-16T08:49:54;13.73;;;3.40;;
52740;SDS011;38634;52.138;9.912;2023-03-16T08:52:39;13.25;;;3.88;;
52740;SDS011;38634;52.138;9.912;2023-03-16T08:55:25;10.00;;;3.03;;
52740;SDS011;38634;52.138;9.912;2023-03-16T08:58:10;13.07;;;3.40;;
52740;SDS011;38634;52.138;9.912;2023-03-16T09:00:55;10.82;;;3.35;;
52740;SDS011;38634;52.138;9.912;2023-03-16T09:03:40;13.18;;;3.40;;
52740;SDS011;38634;52.138;9.912;2023-03-16T09:06:25;8.57;;;3.15;;
52740;SDS011;38634;52.138;9.912;2023-03-16T09:09:10;8.10;;;3.13;;
52740;SDS011;38634;52.138;9.912;2023-03-16T09:11:54;8.27;;;3.17;;
52740;SDS011;38634;52.138;9.912;2023-03-16T09:14:39;9.38;;;2.90;;
52740;SDS011;38634;52.138;9.912;2023-03-16T09:17:24;5.30;;;2.28;;
52740;SDS011;38634;52.138;9.912;2023-03-16T09:20:09;6.57;;;2.53;;
52740;SDS011;38634;52.138;9.912;2023-03-16T09:22:55;8.63;;;2.60;;
52740;SDS011;38634;52.138;9.912;2023-03-16T09:25:40;7.40;;;2.50;;
52740;SDS011;38634;52.138;9.912;2023-03-16T09:28:25;10.20;;;3.60;;
52740;SDS011;38634;52.138;9.912;2023-03-16T09:31:17;5.82;;;2.58;;
52740;SDS011;38634;52.138;9.912;2023-03-16T09:34:02;10.80;;;4.10;;
52740;SDS011;38634;52.138;9.912;2023-03-16T09:36:47;8.80;;;2.80;;
52740;SDS011;38634;52.138;9.912;2023-03-16T09:39:32;8.73;;;2.63;;
52740;SDS011;38634;52.138;9.912;2023-03-16T09:48:26;11.05;;;4.03;;
52740;SDS011;38634;52.138;9.912;2023-03-16T09:51:15;7.10;;;2.33;;
52740;SDS011;38634;52.138;9.912;2023-03-16T09:54:33;8.02;;;2.50;;
52740;SDS011;38634;52.138;9.912;2023-03-16T09:57:41;11.05;;;3.20;;
52740;SDS011;38634;52.138;9.912;2023-03-16T10:08:20;9.60;;;3.22;;
52740;SDS011;38634;52.138;9.912;2023-03-16T10:14:38;9.20;;;2.70;;
52740;SDS011;38634;52.138;9.912;2023-03-16T10:20:38;9.25;;;2.95;;
52740;SDS011;38634;52.138;9.912;2023-03-16T10:23:24;5.85;;;2.38;;
52740;SDS011;38634;52.138;9.912;2023-03-16T10:26:11;7.93;;;2.83;;
52740;SDS011;38634;52.138;9.912;2023-03-16T10:29:17;8.82;;;3.97;;
52740;SDS011;38634;52.138;9.912;2023-03-16T10:32:15;10.52;;;3.40;;
52740;SDS011;38634;52.138;9.912;2023-03-16T10:35:04;12.80;;;3.25;;
52740;SDS011;38634;52.138;9.912;2023-03-16T10:37:58;14.07;;;4.50;;
52740;SDS011;38634;52.138;9.912;2023-03-16T10:40:43;12.05;;;3.10;;
52740;SDS011;38634;52.138;9.912;2023-03-16T10:43:28;11.55;;;2.83;;
52740;SDS011;38634;52.138;9.912;2023-03-16T10:46:12;12.27;;;3.05;;
52740;SDS011;38634;52.138;9.912;2023-03-16T10:48:58;13.20;;;3.60;;
52740;SDS011;38634;52.138;9.912;2023-03-16T10:51:43;13.70;;;3.30;;
52740;SDS011;38634;52.138;9.912;2023-03-16T10:54:29;13.18;;;3.30;;
52740;SDS011;38634;52.138;9.912;2023-03-16T11:00:07;12.40;;;3.03;;
52740;SDS011;38634;52.138;9.912;2023-03-16T11:03:46;13.07;;;3.50;;
52740;SDS011;38634;52.138;9.912;2023-03-16T11:06:26;11.20;;;2.90;;
52740;SDS011;38634;52.138;9.912;2023-03-16T11:09:17;11.65;;;3.33;;
52740;SDS011;38634;52.138;9.912;2023-03-16T11:12:25;10.52;;;2.88;;
52740;SDS011;38634;52.138;9.912;2023-03-16T11:15:13;9.90;;;2.85;;
52740;SDS011;38634;52.138;9.912;2023-03-16T11:17:58;9.35;;;3.15;;
52740;SDS011;38634;52.138;9.912;2023-03-16T11:20:43;9.52;;;3.28;;
52740;SDS011;38634;52.138;9.912;2023-03-16T11:23:30;5.88;;;2.05;;
52740;SDS011;38634;52.138;9.912;2023-03-16T11:26:20;10.18;;;2.88;;
52740;SDS011;38634;52.138;9.912;2023-03-16T11:29:23;10.90;;;3.08;;
52740;SDS011;38634;52.138;9.912;2023-03-16T11:32:23;11.35;;;3.20;;
52740;SDS011;38634;52.138;9.912;2023-03-16T11:35:56;12.43;;;3.00;;
52740;SDS011;38634;52.138;9.912;2023-03-16T11:38:43;14.02;;;3.80;;
52740;SDS011;38634;52.138;9.912;2023-03-16T11:44:36;9.60;;;2.75;;
52740;SDS011;38634;52.138;9.912;2023-03-16T11:53:58;12.00;;;3.92;;
52740;SDS011;38634;52.138;9.912;2023-03-16T12:10:28;23.20;;;5.70;;
52740;SDS011;38634;52.138;9.912;2023-03-16T12:19:05;36.85;;;8.73;;
52740;SDS011;38634;52.138;9.912;2023-03-16T12:22:01;22.60;;;6.10;;
52740;SDS011;38634;52.138;9.912;2023-03-16T12:25:05;16.45;;;4.85;;
52740;SDS011;38634;52.138;9.912;2023-03-16T12:28:05;31.60;;;7.65;;
52740;SDS011;38634;52.138;9.912;2023-03-16T12:31:09;42.05;;;8.27;;
52740;SDS011;38634;52.138;9.912;2023-03-16T12:50:06;28.15;;;7.78;;
52740;SDS011;38634;52.138;9.912;2023-03-16T12:52:54;28.65;;;6.57;;
52740;SDS011;38634;52.138;9.912;2023-03-16T12:55:39;23.60;;;5.55;;
52740;SDS011;38634;52.138;9.912;2023-03-16T12:58:28;22.13;;;7.97;;
52740;SDS011;38634;52.138;9.912;2023-03-16T13:01:13;32.92;;;7.85;;
52740;SDS011;38634;52.138;9.912;2023-03-16T13:04:02;30.33;;;8.40;;
52740;SDS011;38634;52.138;9.912;2023-03-16T13:07:01;31.48;;;8.20;;
52740;SDS011;38634;52.138;9.912;2023-03-16T13:12:52;33.70;;;8.35;;
52740;SDS011;38634;52.138;9.912;2023-03-16T13:15:38;33.10;;;8.35;;
52740;SDS011;38634;52.138;9.912;2023-03-16T13:18:26;16.25;;;3.85;;
52740;SDS011;38634;52.138;9.912;2023-03-16T13:21:36;35.40;;;8.13;;
52740;SDS011;38634;52.138;9.912;2023-03-16T13:24:25;23.73;;;5.97;;
52740;SDS011;38634;52.138;9.912;2023-03-16T13:27:19;41.40;;;8.63;;
52740;SDS011;38634;52.138;9.912;2023-03-16T13:30:19;20.38;;;5.00;;
52740;SDS011;38634;52.138;9.912;2023-03-16T13:33:18;36.28;;;7.95;;
52740;SDS011;38634;52.138;9.912;2023-03-16T13:36:13;14.20;;;4.78;;
52740;SDS011;38634;52.138;9.912;2023-03-16T13:39:05;18.63;;;5.05;;
52740;SDS011;38634;52.138;9.912;2023-03-16T13:42:15;44.20;;;9.10;;
52740;SDS011;38634;52.138;9.912;2023-03-16T13:45:13;28.75;;;7.25;;
52740;SDS011;38634;52.138;9.912;2023-03-16T13:48:02;15.20;;;4.25;;
52740;SDS011;38634;52.138;9.912;2023-03-16T13:50:55;17.60;;;5.57;;
52740;SDS011;38634;52.138;9.912;2023-03-16T13:53:40;25.48;;;6.95;;
52740;SDS011;38634;52.138;9.912;2023-03-16T13:56:26;19.98;;;5.60;;
52740;SDS011;38634;52.138;9.912;2023-03-16T13:59:12;25.05;;;5.95;;
52740;SDS011;38634;52.138;9.912;2023-03-16T14:01:57;36.30;;;8.18;;
52740;SDS011;38634;52.138;9.912;2023-03-16T14:04:44;44.63;;;9.15;;
52740;SDS011;38634;52.138;9.912;2023-03-16T14:07:35;25.05;;;6.05;;
52740;SDS011;38634;52.138;9.912;2023-03-16T14:10:21;30.45;;;6.80;;
52740;SDS011;38634;52.138;9.912;2023-03-16T14:16:16;38.05;;;8.38;;
52740;SDS011;38634;52.138;9.912;2023-03-16T14:19:03;40.95;;;8.88;;
52740;SDS011;38634;52.138;9.912;2023-03-16T14:22:00;18.33;;;4.90;;
52740;SDS011;38634;52.138;9.912;2023-03-16T14:24:51;32.83;;;8.02;;
52740;SDS011;38634;52.138;9.912;2023-03-16T14:30:24;16.20;;;4.47;;
52740;SDS011;38634;52.138;9.912;2023-03-16T14:33:24;36.90;;;8.32;;
52740;SDS011;38634;52.138;9.912;2023-03-16T14:36:16;22.17;;;6.13;;
52740;SDS011;38634;52.138;9.912;2023-03-16T14:39:08;31.38;;;9.05;;
52740;SDS011;38634;52.138;9.912;2023-03-16T14:42:03;17.85;;;5.40;;
52740;SDS011;38634;52.138;9.912;2023-03-16T14:44:49;31.33;;;8.38;;
52740;SDS011;38634;52.138;9.912;2023-03-16T14:47:37;27.20;;;6.47;;
52740;SDS011;38634;52.138;9.912;2023-03-16T14:50:25;15.02;;;4.82;;
52740;SDS011;38634;52.138;9.912;2023-03-16T14:53:10;32.80;;;7.72;;
52740;SDS011;38634;52.138;9.912;2023-03-16T14:55:54;26.95;;;6.40;;
52740;SDS011;38634;52.138;9.912;2023-03-16T14:58:40;22.30;;;6.13;;
52740;SDS011;38634;52.138;9.912;2023-03-16T15:01:25;11.52;;;4.32;;
52740;SDS011;38634;52.138;9.912;2023-03-16T15:04:11;14.40;;;4.65;;
52740;SDS011;38634;52.138;9.912;2023-03-16T15:07:05;27.13;;;7.10;;
52740;SDS011;38634;52.138;9.912;2023-03-16T15:10:15;26.15;;;6.65;;
52740;SDS011;38634;52.138;9.912;2023-03-16T15:13:16;12.05;;;3.78;;
52740;SDS011;38634;52.138;9.912;2023-03-16T15:16:23;27.95;;;6.35;;
52740;SDS011;38634;52.138;9.912;2023-03-16T15:19:08;27.15;;;6.32;;
52740;SDS011;38634;52.138;9.912;2023-03-16T15:21:53;22.20;;;5.65;;
52740;SDS011;38634;52.138;9.912;2023-03-16T15:24:38;9.05;;;2.95;;
52740;SDS011;38634;52.138;9.912;2023-03-16T15:27:24;16.40;;;4.72;;
52740;SDS011;38634;52.138;9.912;2023-03-16T15:30:21;23.00;;;6.47;;
52740;SDS011;38634;52.138;9.912;2023-03-16T15:33:09;16.88;;;5.50;;
52740;SDS011;38634;52.138;9.912;2023-03-16T15:35:56;38.60;;;7.68;;
52740;SDS011;38634;52.138;9.912;2023-03-16T15:38:46;29.73;;;7.75;;
52740;SDS011;38634;52.138;9.912;2023-03-16T15:41:33;15.07;;;4.47;;
52740;SDS011;38634;52.138;9.912;2023-03-16T15:44:17;25.48;;;6.32;;
52740;SDS011;38634;52.138;9.912;2023-03-16T15:47:02;37.45;;;8.68;;
52740;SDS011;38634;52.138;9.912;2023-03-16T15:49:47;30.50;;;7.30;;
52740;SDS011;38634;52.138;9.912;2023-03-16T15:52:33;20.30;;;5.18;;
52740;SDS011;38634;52.138;9.912;2023-03-16T15:55:20;15.73;;;5.20;;
52740;SDS011;38634;52.138;9.912;2023-03-16T15:58:13;38.20;;;8.30;;
52740;SDS011;38634;52.138;9.912;2023-03-16T16:01:02;14.73;;;4.65;;
52740;SDS011;38634;52.138;9.912;2023-03-16T16:03:48;21.73;;;6.13;;
52740;SDS011;38634;52.138;9.912;2023-03-16T16:06:34;34.63;;;8.43;;
52740;SDS011;38634;52.138;9.912;2023-03-16T16:09:19;34.75;;;8.38;;
52740;SDS011;38634;52.138;9.912;2023-03-16T16:12:04;18.08;;;5.25;;
52740;SDS011;38634;52.138;9.912;2023-03-16T16:14:54;28.08;;;6.85;;
52740;SDS011;38634;52.138;9.912;2023-03-16T16:17:39;33.75;;;8.05;;
52740;SDS011;38634;52.138;9.912;2023-03-16T16:20:26;34.85;;;8.23;;
52740;SDS011;38634;52.138;9.912;2023-03-16T16:23:12;13.60;;;3.80;;
52740;SDS011;38634;52.138;9.912;2023-03-16T16:25:58;18.60;;;5.05;;
52740;SDS011;38634;52.138;9.912;2023-03-16T16:28:47;36.95;;;9.07;;
52740;SDS011;38634;52.138;9.912;2023-03-16T16:31:31;25.85;;;6.50;;
52740;SDS011;38634;52.138;9.912;2023-03-16T16:34:17;18.70;;;4.80;;
52740;SDS011;38634;52.138;9.912;2023-03-16T16:37:07;25.75;;;7.15;;
52740;SDS011;38634;52.138;9.912;2023-03-16T16:39:52;25.52;;;6.55;;
52740;SDS011;38634;52.138;9.912;2023-03-16T16:42:36;29.92;;;7.82;;
52740;SDS011;38634;52.138;9.912;2023-03-16T16:45:22;15.77;;;4.47;;
52740;SDS011;38634;52.138;9.912;2023-03-16T16:48:12;18.80;;;5.03;;
52740;SDS011;38634;52.138;9.912;2023-03-16T16:51:20;16.25;;;4.13;;
52740;SDS011;38634;52.138;9.912;2023-03-16T16:57:04;12.82;;;3.85;;
52740;SDS011;38634;52.138;9.912;2023-03-16T16:59:51;35.58;;;8.45;;
52740;SDS011;38634;52.138;9.912;2023-03-16T17:02:41;35.53;;;8.18;;
52740;SDS011;38634;52.138;9.912;2023-03-16T17:05:31;17.98;;;5.90;;
52740;SDS011;38634;52.138;9.912;2023-03-16T17:08:16;30.83;;;7.28;;
52740;SDS011;38634;52.138;9.912;2023-03-16T17:11:01;33.78;;;7.82;;
52740;SDS011;38634;52.138;9.912;2023-03-16T17:13:47;24.83;;;6.35;;
52740;SDS011;38634;52.138;9.912;2023-03-16T17:16:34;14.68;;;4.55;;
52740;SDS011;38634;52.138;9.912;2023-03-16T17:19:20;26.10;;;6.00;;
52740;SDS011;38634;52.138;9.912;2023-03-16T17:22:29;25.70;;;6.07;;
52740;SDS011;38634;52.138;9.912;2023-03-16T17:25:14;41.05;;;8.65;;
52740;SDS011;38634;52.138;9.912;2023-03-16T17:28:00;22.30;;;5.50;;
52740;SDS011;38634;52.138;9.912;2023-03-16T17:30:45;15.57;;;4.80;;
52740;SDS011;38634;52.138;9.912;2023-03-16T17:33:32;29.83;;;7.05;;
52740;SDS011;38634;52.138;9.912;2023-03-16T17:36:17;35.63;;;7.90;;
52740;SDS011;38634;52.138;9.912;2023-03-16T17:39:05;29.13;;;6.63;;
52740;SDS011;38634;52.138;9.912;2023-03-16T17:42:15;26.85;;;6.10;;
52740;SDS011;38634;52.138;9.912;2023-03-16T17:45:01;16.92;;;4.93;;
52740;SDS011;38634;52.138;9.912;2023-03-16T17:47:48;27.73;;;6.60;;
52740;SDS011;38634;52.138;9.912;2023-03-16T17:50:34;34.67;;;7.68;;
52740;SDS011;38634;52.138;9.912;2023-03-16T17:53:18;27.65;;;6.38;;
52740;SDS011;38634;52.138;9.912;2023-03-16T17:56:12;14.55;;;4.28;;
52740;SDS011;38634;52.138;9.912;2023-03-16T17:59:16;15.10;;;4.40;;
52740;SDS011;38634;52.138;9.912;2023-03-16T18:02:07;28.75;;;6.78;;
52740;SDS011;38634;52.138;9.912;2023-03-16T18:05:26;26.70;;;6.22;;
52740;SDS011;38634;52.138;9.912;2023-03-16T18:11:14;15.82;;;6.25;;
52740;SDS011;38634;52.138;9.912;2023-03-16T18:14:33;26.67;;;7.22;;
52740;SDS011;38634;52.138;9.912;2023-03-16T18:17:22;32.15;;;11.65;;
52740;SDS011;38634;52.138;9.912;2023-03-16T18:20:19;19.90;;;5.68;;
52740;SDS011;38634;52.138;9.912;2023-03-16T18:23:17;29.05;;;9.15;;
52740;SDS011;38634;52.138;9.912;2023-03-16T18:26:05;14.00;;;4.43;;
52740;SDS011;38634;52.138;9.912;2023-03-16T18:28:51;15.00;;;5.05;;
52740;SDS011;38634;52.138;9.912;2023-03-16T18:31:39;36.38;;;9.77;;
52740;SDS011;38634;52.138;9.912;2023-03-16T18:34:25;20.05;;;6.32;;
52740;SDS011;38634;52.138;9.912;2023-03-16T18:37:20;7.75;;;3.55;;
52740;SDS011;38634;52.138;9.912;2023-03-16T18:40:12;16.40;;;6.70;;
52740;SDS011;38634;52.138;9.912;2023-03-16T18:43:01;8.50;;;4.82;;
52740;SDS011;38634;52.138;9.912;2023-03-16T18:45:46;12.10;;;5.88;;
52740;SDS011;38634;52.138;9.912;2023-03-16T18:48:34;13.45;;;8.80;;
52740;SDS011;38634;52.138;9.912;2023-03-16T18:51:19;9.70;;;5.15;;
52740;SDS011;38634;52.138;9.912;2023-03-16T18:54:14;6.47;;;3.85;;
52740;SDS011;38634;52.138;9.912;2023-03-16T18:57:16;6.90;;;4.03;;
52740;SDS011;38634;52.138;9.912;2023-03-16T19:00:04;11.30;;;5.82;;
52740;SDS011;38634;52.138;9.912;2023-03-16T19:02:50;9.32;;;5.45;;
52740;SDS011;38634;52.138;9.912;2023-03-16T19:05:37;8.45;;;4.13;;
52740;SDS011;38634;52.138;9.912;2023-03-16T19:08:23;7.35;;;4.03;;
52740;SDS011;38634;52.138;9.912;2023-03-16T19:11:09;7.97;;;4.72;;
52740;SDS011;38634;52.138;9.912;2023-03-16T19:13:54;15.45;;;6.28;;
52740;SDS011;38634;52.138;9.912;2023-03-16T19:16:38;11.45;;;5.68;;
52740;SDS011;38634;52.138;9.912;2023-03-16T19:19:23;6.97;;;4.13;;
52740;SDS011;38634;52.138;9.912;2023-03-16T19:22:14;4.20;;;2.58;;
52740;SDS011;38634;52.138;9.912;2023-03-16T19:25:01;13.38;;;6.72;;
52740;SDS011;38634;52.138;9.912;2023-03-16T19:27:46;9.05;;;5.22;;
52740;SDS011;38634;52.138;9.912;2023-03-16T19:30:30;5.68;;;4.03;;
52740;SDS011;38634;52.138;9.912;2023-03-16T19:33:18;8.30;;;4.47;;
52740;SDS011;38634;52.138;9.912;2023-03-16T19:36:05;13.48;;;6.47;;
52740;SDS011;38634;52.138;9.912;2023-03-16T19:38:57;8.00;;;4.22;;
52740;SDS011;38634;52.138;9.912;2023-03-16T19:41:41;7.63;;;4.13;;
52740;SDS011;38634;52.138;9.912;2023-03-16T19:44:29;14.98;;;7.40;;
52740;SDS011;38634;52.138;9.912;2023-03-16T19:47:34;16.73;;;7.28;;
52740;SDS011;38634;52.138;9.912;2023-03-16T19:50:20;14.82;;;6.07;;
52740;SDS011;38634;52.138;9.912;2023-03-16T19:53:12;7.88;;;3.85;;
52740;SDS011;38634;52.138;9.912;2023-03-16T19:56:13;13.60;;;6.05;;
52740;SDS011;38634;52.138;9.912;2023-03-16T19:58:59;6.82;;;3.70;;
52740;SDS011;38634;52.138;9.912;2023-03-16T20:01:44;6.03;;;3.67;;
52740;SDS011;38634;52.138;9.912;2023-03-16T20:04:29;10.38;;;5.40;;
52740;SDS011;38634;52.138;9.912;2023-03-16T20:07:15;11.90;;;6.38;;
52740;SDS011;38634;52.138;9.912;2023-03-16T20:09:59;9.63;;;5.32;;
52740;SDS011;38634;52.138;9.912;2023-03-16T20:12:44;8.50;;;4.47;;
52740;SDS011;38634;52.138;9.912;2023-03-16T20:15:30;4.28;;;2.30;;
52740;SDS011;38634;52.138;9.912;2023-03-16T20:18:18;15.23;;;7.07;;
52740;SDS011;38634;52.138;9.912;2023-03-16T20:21:03;16.15;;;6.70;;
52740;SDS011;38634;52.138;9.912;2023-03-16T20:23:47;9.90;;;4.75;;
52740;SDS011;38634;52.138;9.912;2023-03-16T20:26:32;7.70;;;3.95;;
52740;SDS011;38634;52.138;9.912;2023-03-16T20:29:26;9.50;;;4.72;;
52740;SDS011;38634;52.138;9.912;2023-03-16T20:32:22;10.55;;;3.85;;
52740;SDS011;38634;52.138;9.912;2023-03-16T20:35:14;23.23;;;8.57;;
52740;SDS011;38634;52.138;9.912;2023-03-16T20:38:09;12.38;;;4.78;;
52740;SDS011;38634;52.138;9.912;2023-03-16T20:40:55;18.17;;;6.28;;
52740;SDS011;38634;52.138;9.912;2023-03-16T20:43:40;14.48;;;6.82;;
52740;SDS011;38634;52.138;9.912;2023-03-16T20:46:28;17.08;;;4.85;;
52740;SDS011;38634;52.138;9.912;2023-03-16T20:52:22;30.60;;;8.40;;
52740;SDS011;38634;52.138;9.912;2023-03-16T20:55:12;10.93;;;7.63;;
52740;SDS011;38634;52.138;9.912;2023-03-16T20:57:58;18.27;;;7.65;;
52740;SDS011;38634;52.138;9.912;2023-03-16T21:00:46;12.60;;;5.15;;
52740;SDS011;38634;52.138;9.912;2023-03-16T21:03:35;11.60;;;4.78;;
52740;SDS011;38634;52.138;9.912;2023-03-16T21:09:12;7.03;;;3.45;;
52740;SDS011;38634;52.138;9.912;2023-03-16T21:11:57;10.43;;;3.10;;
52740;SDS011;38634;52.138;9.912;2023-03-16T21:14:41;10.85;;;3.20;;
52740;SDS011;38634;52.138;9.912;2023-03-16T21:17:33;5.43;;;3.25;;
52740;SDS011;38634;52.138;9.912;2023-03-16T21:20:20;4.68;;;2.72;;
52740;SDS011;38634;52.138;9.912;2023-03-16T21:23:10;4.85;;;2.53;;
52740;SDS011;38634;52.138;9.912;2023-03-16T21:26:00;4.55;;;2.80;;
52740;SDS011;38634;52.138;9.912;2023-03-16T21:28:48;5.90;;;3.22;;
52740;SDS011;38634;52.138;9.912;2023-03-16T21:31:41;4.90;;;2.90;;
52740;SDS011;38634;52.138;9.912;2023-03-16T21:34:27;4.55;;;2.97;;
52740;SDS011;38634;52.138;9.912;2023-03-16T21:37:14;8.65;;;3.00;;
52740;SDS011;38634;52.138;9.912;2023-03-16T21:40:00;3.85;;;2.75;;
52740;SDS011;38634;52.138;9.912;2023-03-16T21:42:45;4.95;;;2.63;;
52740;SDS011;38634;52.138;9.912;2023-03-16T21:45:30;5.88;;;2.70;;
52740;SDS011;38634;52.138;9.912;2023-03-16T21:48:16;5.38;;;3.03;;
52740;SDS011;38634;52.138;9.912;2023-03-16T21:51:13;6.03;;;3.17;;
52740;SDS011;38634;52.138;9.912;2023-03-16T21:54:14;6.32;;;2.90;;
52740;SDS011;38634;52.138;9.912;2023-03-16T21:57:00;6.85;;;2.90;;
52740;SDS011;38634;52.138;9.912;2023-03-16T21:59:45;6.03;;;2.88;;
52740;SDS011;38634;52.138;9.912;2023-03-16T22:02:30;5.10;;;2.80;;
52740;SDS011;38634;52.138;9.912;2023-03-16T22:08:29;15.60;;;7.07;;
52740;SDS011;38634;52.138;9.912;2023-03-16T22:11:17;4.55;;;3.10;;
52740;SDS011;38634;52.138;9.912;2023-03-16T22:14:08;5.18;;;3.33;;
52740;SDS011;38634;52.138;9.912;2023-03-16T22:16:54;5.38;;;2.92;;
52740;SDS011;38634;52.138;9.912;2023-03-16T22:19:39;6.38;;;3.10;;
52740;SDS011;38634;52.138;9.912;2023-03-16T22:22:24;5.47;;;3.00;;
52740;SDS011;38634;52.138;9.912;2023-03-16T22:25:17;6.75;;;3.22;;
52740;SDS011;38634;52.138;9.912;2023-03-16T22:28:09;8.15;;;2.85;;
52740;SDS011;38634;52.138;9.912;2023-03-16T22:30:55;5.60;;;3.10;;
52740;SDS011;38634;52.138;9.912;2023-03-16T22:33:40;6.15;;;2.80;;
52740;SDS011;38634;52.138;9.912;2023-03-16T22:36:26;5.03;;;2.60;;
52740;SDS011;38634;52.138;9.912;2023-03-16T22:39:11;4.18;;;3.20;;
52740;SDS011;38634;52.138;9.912;2023-03-16T22:41:56;4.78;;;2.70;;
52740;SDS011;38634;52.138;9.912;2023-03-16T22:44:40;3.53;;;2.20;;
52740;SDS011;38634;52.138;9.912;2023-03-16T22:47:26;4.63;;;2.70;;
52740;SDS011;38634;52.138;9.912;2023-03-16T22:50:16;4.18;;;2.58;;
52740;SDS011;38634;52.138;9.912;2023-03-16T22:53:04;5.72;;;2.95;;
52740;SDS011;38634;52.138;9.912;2023-03-16T22:55:51;6.05;;;2.97;;
52740;SDS011;38634;52.138;9.912;2023-03-16T23:01:30;6.20;;;3.25;;
52740;SDS011;38634;52.138;9.912;2023-03-16T23:04:25;8.75;;;3.00;;
52740;SDS011;38634;52.138;9.912;2023-03-16T23:07:14;7.55;;;2.92;;
52740;SDS011;38634;52.138;9.912;2023-03-16T23:09:59;8.82;;;3.15;;
52740;SDS011;38634;52.138;9.912;2023-03-16T23:12:45;6.18;;;2.65;;
52740;SDS011;38634;52.138;9.912;2023-03-16T23:15:29;5.88;;;2.50;;
52740;SDS011;38634;52.138;9.912;2023-03-16T23:18:21;6.90;;;3.75;;
52740;SDS011;38634;52.138;9.912;2023-03-16T23:21:12;6.18;;;3.47;;
52740;SDS011;38634;52.138;9.912;2023-03-16T23:23:59;4.95;;;3.13;;
52740;SDS011;38634;52.138;9.912;2023-03-16T23:26:43;8.55;;;2.88;;
52740;SDS011;38634;52.138;9.912;2023-03-16T23:29:28;5.40;;;2.90;;
52740;SDS011;38634;52.138;9.912;2023-03-16T23:32:13;5.28;;;2.95;;
52740;SDS011;38634;52.138;9.912;2023-03-16T23:34:59;5.57;;;3.15;;
52740;SDS011;38634;52.138;9.912;2023-03-16T23:37:44;5.28;;;2.97;;
52740;SDS011;38634;52.138;9.912;2023-03-16T23:40:29;13.50;;;11.95;;
52740;SDS011;38634;52.138;9.912;2023-03-16T23:43:14;14.73;;;5.68;;
52740;SDS011;38634;52.138;9.912;2023-03-16T23:45:58;5.63;;;3.20;;
52740;SDS011;38634;52.138;9.912;2023-03-16T23:48:43;7.70;;;3.97;;
52740;SDS011;38634;52.138;9.912;2023-03-16T23:51:36;6.00;;;3.42;;
52740;SDS011;38634;52.138;9.912;2023-03-16T23:54:21;6.40;;;3.00;;
52740;SDS011;38634;52.138;9.912;2023-03-16T23:57:08;6.85;;;3.00;;
52740;SDS011;38634;52.138;9.912;2023-03-16T23:59:53;4.85;;;2.75;;
